sensor_id;sensor_type;location;lat;lon;timestamp;temperature;humidity
19397;DHT22;9834;48.076;11.878;2022-09-02T00:02:14;10.80;99.90
19397;DHT22;9834;48.076;11.878;2022-09-02T00:04:42;10.80;99.90
19397;DHT22;9834;48.076;11.878;2022-09-02T00:07:09;10.80;99.90
19397;DHT22;9834;48.076;11.878;2022-09-02T00:09:36;10.80;99.90
19397;DHT22;9834;48.076;11.878;2022-09-02T00:12:06;10.80;99.90
19397;DHT22;9834;48.076;11.878;2022-09-02T00:14:35;10.70;99.90
19397;DHT22;9834;48.076;11.878;2022-09-02T00:17:03;10.70;99.90
19397;DHT22;9834;48.076;11.878;2022-09-02T00:19:32;10.70;99.90
19397;DHT22;9834;48.076;11.878;2022-09-02T00:22:00;10.60;99.90
19397;DHT22;9834;48.076;11.878;2022-09-02T00:24:27;10.60;99.90
19397;DHT22;9834;48.076;11.878;2022-09-02T00:26:54;10.60;99.90
19397;DHT22;9834;48.076;11.878;2022-09-02T00:29:21;10.60;99.90
19397;DHT22;9834;48.076;11.878;2022-09-02T00:31:48;10.60;99.90
19397;DHT22;9834;48.076;11.878;2022-09-02T00:34:15;10.50;99.90
19397;DHT22;9834;48.076;11.878;2022-09-02T00:36:44;10.50;99.90
19397;DHT22;9834;48.076;11.878;2022-09-02T00:39:11;10.50;99.90
19397;DHT22;9834;48.076;11.878;2022-09-02T00:41:39;10.50;99.90
19397;DHT22;9834;48.076;11.878;2022-09-02T00:44:08;10.50;99.90
19397;DHT22;9834;48.076;11.878;2022-09-02T00:46:36;10.50;99.90
19397;DHT22;9834;48.076;11.878;2022-09-02T00:49:07;10.50;99.90
19397;DHT22;9834;48.076;11.878;2022-09-02T00:51:39;10.50;99.90
19397;DHT22;9834;48.076;11.878;2022-09-02T00:54:09;10.40;99.90
19397;DHT22;9834;48.076;11.878;2022-09-02T00:56:39;10.40;99.90
19397;DHT22;9834;48.076;11.878;2022-09-02T00:59:09;10.40;99.90
19397;DHT22;9834;48.076;11.878;2022-09-02T01:01:38;10.40;99.90
19397;DHT22;9834;48.076;11.878;2022-09-02T01:04:05;10.40;99.90
19397;DHT22;9834;48.076;11.878;2022-09-02T01:06:32;10.40;99.90
19397;DHT22;9834;48.076;11.878;2022-09-02T01:09:03;10.30;99.90
19397;DHT22;9834;48.076;11.878;2022-09-02T01:11:40;10.30;99.90
19397;DHT22;9834;48.076;11.878;2022-09-02T01:14:07;10.30;99.90
19397;DHT22;9834;48.076;11.878;2022-09-02T01:16:39;10.30;99.90
19397;DHT22;9834;48.076;11.878;2022-09-02T01:19:15;10.30;99.90
19397;DHT22;9834;48.076;11.878;2022-09-02T01:21:47;10.30;99.90
19397;DHT22;9834;48.076;11.878;2022-09-02T01:24:14;10.30;99.90
19397;DHT22;9834;48.076;11.878;2022-09-02T01:26:41;10.30;99.90
19397;DHT22;9834;48.076;11.878;2022-09-02T01:29:08;10.30;99.90
19397;DHT22;9834;48.076;11.878;2022-09-02T01:31:35;10.20;99.90
19397;DHT22;9834;48.076;11.878;2022-09-02T01:34:03;10.20;99.90
19397;DHT22;9834;48.076;11.878;2022-09-02T01:36:31;10.20;99.90
19397;DHT22;9834;48.076;11.878;2022-09-02T01:38:59;10.20;99.90
19397;DHT22;9834;48.076;11.878;2022-09-02T01:41:26;10.20;99.90
19397;DHT22;9834;48.076;11.878;2022-09-02T01:43:53;10.30;99.90
19397;DHT22;9834;48.076;11.878;2022-09-02T01:46:20;10.30;99.90
19397;DHT22;9834;48.076;11.878;2022-09-02T01:48:48;10.30;99.90
19397;DHT22;9834;48.076;11.878;2022-09-02T01:51:17;10.20;99.90
19397;DHT22;9834;48.076;11.878;2022-09-02T01:53:44;10.20;99.90
19397;DHT22;9834;48.076;11.878;2022-09-02T01:56:13;10.20;99.90
19397;DHT22;9834;48.076;11.878;2022-09-02T01:58:41;10.30;99.90
19397;DHT22;9834;48.076;11.878;2022-09-02T02:01:08;10.20;99.90
19397;DHT22;9834;48.076;11.878;2022-09-02T02:03:36;10.30;99.90
19397;DHT22;9834;48.076;11.878;2022-09-02T02:06:07;10.40;99.90
19397;DHT22;9834;48.076;11.878;2022-09-02T02:08:34;10.40;99.90
19397;DHT22;9834;48.076;11.878;2022-09-02T02:11:02;10.40;99.90
19397;DHT22;9834;48.076;11.878;2022-09-02T02:13:30;10.40;99.90
19397;DHT22;9834;48.076;11.878;2022-09-02T02:15:57;10.40;99.90
19397;DHT22;9834;48.076;11.878;2022-09-02T02:18:24;10.30;99.90
19397;DHT22;9834;48.076;11.878;2022-09-02T02:20:51;10.30;99.90
19397;DHT22;9834;48.076;11.878;2022-09-02T02:23:18;10.30;99.90
19397;DHT22;9834;48.076;11.878;2022-09-02T02:25:45;10.30;99.90
19397;DHT22;9834;48.076;11.878;2022-09-02T02:28:12;10.40;99.90
19397;DHT22;9834;48.076;11.878;2022-09-02T02:30:41;10.40;99.90
19397;DHT22;9834;48.076;11.878;2022-09-02T02:33:08;10.30;99.90
19397;DHT22;9834;48.076;11.878;2022-09-02T02:35:35;10.30;99.90
19397;DHT22;9834;48.076;11.878;2022-09-02T02:38:02;10.40;99.90
19397;DHT22;9834;48.076;11.878;2022-09-02T02:40:29;10.30;99.90
19397;DHT22;9834;48.076;11.878;2022-09-02T02:42:56;10.30;99.90
19397;DHT22;9834;48.076;11.878;2022-09-02T02:45:23;10.30;99.90
19397;DHT22;9834;48.076;11.878;2022-09-02T02:47:52;10.30;99.90
19397;DHT22;9834;48.076;11.878;2022-09-02T02:50:22;10.30;99.90
19397;DHT22;9834;48.076;11.878;2022-09-02T02:52:50;10.30;99.90
19397;DHT22;9834;48.076;11.878;2022-09-02T02:55:20;10.30;99.90
19397;DHT22;9834;48.076;11.878;2022-09-02T02:57:47;10.30;99.90
19397;DHT22;9834;48.076;11.878;2022-09-02T03:00:23;10.20;99.90
19397;DHT22;9834;48.076;11.878;2022-09-02T03:02:55;10.30;99.90
19397;DHT22;9834;48.076;11.878;2022-09-02T03:05:23;10.20;99.90
19397;DHT22;9834;48.076;11.878;2022-09-02T03:07:50;10.20;99.90
19397;DHT22;9834;48.076;11.878;2022-09-02T03:10:17;10.30;99.90
19397;DHT22;9834;48.076;11.878;2022-09-02T03:12:44;10.30;99.90
19397;DHT22;9834;48.076;11.878;2022-09-02T03:15:13;10.20;99.90
19397;DHT22;9834;48.076;11.878;2022-09-02T03:17:41;10.20;99.90
19397;DHT22;9834;48.076;11.878;2022-09-02T03:20:11;10.20;99.90
19397;DHT22;9834;48.076;11.878;2022-09-02T03:22:38;10.30;99.90
19397;DHT22;9834;48.076;11.878;2022-09-02T03:25:07;10.30;99.90
19397;DHT22;9834;48.076;11.878;2022-09-02T03:27:36;10.30;99.90
19397;DHT22;9834;48.076;11.878;2022-09-02T03:30:06;10.30;99.90
19397;DHT22;9834;48.076;11.878;2022-09-02T03:32:33;10.30;99.90
19397;DHT22;9834;48.076;11.878;2022-09-02T03:35:00;10.30;99.90
19397;DHT22;9834;48.076;11.878;2022-09-02T03:37:29;10.30;99.90
19397;DHT22;9834;48.076;11.878;2022-09-02T03:39:56;10.20;99.90
19397;DHT22;9834;48.076;11.878;2022-09-02T03:42:22;10.20;99.90
19397;DHT22;9834;48.076;11.878;2022-09-02T03:44:49;10.20;99.90
19397;DHT22;9834;48.076;11.878;2022-09-02T03:47:16;10.20;99.90
19397;DHT22;9834;48.076;11.878;2022-09-02T03:49:44;10.20;99.90
19397;DHT22;9834;48.076;11.878;2022-09-02T03:52:11;10.10;99.90
19397;DHT22;9834;48.076;11.878;2022-09-02T03:54:39;10.10;99.90
19397;DHT22;9834;48.076;11.878;2022-09-02T03:57:07;10.20;99.90
19397;DHT22;9834;48.076;11.878;2022-09-02T03:59:34;10.20;99.90
19397;DHT22;9834;48.076;11.878;2022-09-02T04:02:02;10.20;99.90
19397;DHT22;9834;48.076;11.878;2022-09-02T04:04:30;10.20;99.90
19397;DHT22;9834;48.076;11.878;2022-09-02T04:06:57;10.10;99.90
19397;DHT22;9834;48.076;11.878;2022-09-02T04:09:24;10.10;99.90
19397;DHT22;9834;48.076;11.878;2022-09-02T04:11:53;10.10;99.90
19397;DHT22;9834;48.076;11.878;2022-09-02T04:14:20;10.10;99.90
19397;DHT22;9834;48.076;11.878;2022-09-02T04:23:35;10.10;99.90
19397;DHT22;9834;48.076;11.878;2022-09-02T04:26:04;10.00;99.90
19397;DHT22;9834;48.076;11.878;2022-09-02T04:28:33;10.00;99.90
19397;DHT22;9834;48.076;11.878;2022-09-02T04:31:03;10.00;99.90
19397;DHT22;9834;48.076;11.878;2022-09-02T04:33:30;9.90;99.90
19397;DHT22;9834;48.076;11.878;2022-09-02T04:35:57;9.90;99.90
19397;DHT22;9834;48.076;11.878;2022-09-02T04:38:24;9.90;99.90
19397;DHT22;9834;48.076;11.878;2022-09-02T04:40:51;9.90;99.90
19397;DHT22;9834;48.076;11.878;2022-09-02T04:43:18;9.90;99.90
19397;DHT22;9834;48.076;11.878;2022-09-02T04:45:46;9.90;99.90
19397;DHT22;9834;48.076;11.878;2022-09-02T04:48:13;9.90;99.90
19397;DHT22;9834;48.076;11.878;2022-09-02T04:50:41;9.90;99.90
19397;DHT22;9834;48.076;11.878;2022-09-02T04:53:09;9.90;99.90
19397;DHT22;9834;48.076;11.878;2022-09-02T04:55:38;9.90;99.90
19397;DHT22;9834;48.076;11.878;2022-09-02T04:58:06;9.90;99.90
19397;DHT22;9834;48.076;11.878;2022-09-02T05:00:53;10.00;99.90
19397;DHT22;9834;48.076;11.878;2022-09-02T05:03:20;10.00;99.90
19397;DHT22;9834;48.076;11.878;2022-09-02T05:05:57;10.10;99.90
19397;DHT22;9834;48.076;11.878;2022-09-02T05:08:24;10.10;99.90
19397;DHT22;9834;48.076;11.878;2022-09-02T05:10:51;10.10;99.90
19397;DHT22;9834;48.076;11.878;2022-09-02T05:13:18;10.10;99.90
19397;DHT22;9834;48.076;11.878;2022-09-02T05:15:45;10.20;99.90
19397;DHT22;9834;48.076;11.878;2022-09-02T05:18:14;10.20;99.90
19397;DHT22;9834;48.076;11.878;2022-09-02T05:20:41;10.30;99.90
19397;DHT22;9834;48.076;11.878;2022-09-02T05:23:08;10.30;99.90
19397;DHT22;9834;48.076;11.878;2022-09-02T05:25:36;10.30;99.90
19397;DHT22;9834;48.076;11.878;2022-09-02T05:28:03;10.40;99.90
19397;DHT22;9834;48.076;11.878;2022-09-02T05:30:30;10.40;99.90
19397;DHT22;9834;48.076;11.878;2022-09-02T05:32:57;10.50;99.90
19397;DHT22;9834;48.076;11.878;2022-09-02T05:35:26;10.50;99.90
19397;DHT22;9834;48.076;11.878;2022-09-02T05:37:53;10.60;99.90
19397;DHT22;9834;48.076;11.878;2022-09-02T05:40:21;10.70;99.90
19397;DHT22;9834;48.076;11.878;2022-09-02T05:42:48;10.60;99.90
19397;DHT22;9834;48.076;11.878;2022-09-02T05:45:15;10.80;99.90
19397;DHT22;9834;48.076;11.878;2022-09-02T05:47:42;10.80;99.90
19397;DHT22;9834;48.076;11.878;2022-09-02T05:50:09;10.90;99.90
19397;DHT22;9834;48.076;11.878;2022-09-02T05:52:37;11.00;99.90
19397;DHT22;9834;48.076;11.878;2022-09-02T05:55:05;11.00;99.90
19397;DHT22;9834;48.076;11.878;2022-09-02T05:57:32;11.10;99.90
19397;DHT22;9834;48.076;11.878;2022-09-02T05:59:59;11.20;99.90
19397;DHT22;9834;48.076;11.878;2022-09-02T06:02:46;11.30;99.90
19397;DHT22;9834;48.076;11.878;2022-09-02T06:05:13;11.40;99.90
19397;DHT22;9834;48.076;11.878;2022-09-02T06:07:44;11.50;99.90
19397;DHT22;9834;48.076;11.878;2022-09-02T06:10:11;11.60;99.90
19397;DHT22;9834;48.076;11.878;2022-09-02T06:12:38;11.60;99.90
19397;DHT22;9834;48.076;11.878;2022-09-02T06:15:07;11.70;99.90
19397;DHT22;9834;48.076;11.878;2022-09-02T06:17:34;11.80;99.90
19397;DHT22;9834;48.076;11.878;2022-09-02T06:20:02;11.80;99.90
19397;DHT22;9834;48.076;11.878;2022-09-02T06:22:29;11.90;99.90
19397;DHT22;9834;48.076;11.878;2022-09-02T06:24:58;12.00;99.90
19397;DHT22;9834;48.076;11.878;2022-09-02T06:27:25;12.10;99.90
19397;DHT22;9834;48.076;11.878;2022-09-02T06:29:52;12.10;99.90
19397;DHT22;9834;48.076;11.878;2022-09-02T06:32:19;12.20;99.90
19397;DHT22;9834;48.076;11.878;2022-09-02T06:34:46;12.20;99.90
19397;DHT22;9834;48.076;11.878;2022-09-02T06:37:13;12.30;99.90
19397;DHT22;9834;48.076;11.878;2022-09-02T06:39:40;12.40;99.90
19397;DHT22;9834;48.076;11.878;2022-09-02T06:42:10;12.50;99.90
19397;DHT22;9834;48.076;11.878;2022-09-02T06:44:38;12.60;99.90
19397;DHT22;9834;48.076;11.878;2022-09-02T06:47:05;12.60;99.90
19397;DHT22;9834;48.076;11.878;2022-09-02T06:49:32;12.70;99.90
19397;DHT22;9834;48.076;11.878;2022-09-02T06:51:59;12.70;99.90
19397;DHT22;9834;48.076;11.878;2022-09-02T06:54:26;12.80;99.90
19397;DHT22;9834;48.076;11.878;2022-09-02T06:56:54;12.80;99.90
19397;DHT22;9834;48.076;11.878;2022-09-02T06:59:22;12.90;99.90
19397;DHT22;9834;48.076;11.878;2022-09-02T07:05:05;13.00;99.90
19397;DHT22;9834;48.076;11.878;2022-09-02T07:07:40;13.10;99.90
19397;DHT22;9834;48.076;11.878;2022-09-02T07:10:10;13.20;99.90
19397;DHT22;9834;48.076;11.878;2022-09-02T07:12:39;13.30;99.90
19397;DHT22;9834;48.076;11.878;2022-09-02T07:15:08;13.30;99.90
19397;DHT22;9834;48.076;11.878;2022-09-02T07:17:35;13.50;99.90
19397;DHT22;9834;48.076;11.878;2022-09-02T07:20:03;13.50;99.90
19397;DHT22;9834;48.076;11.878;2022-09-02T07:22:30;13.60;99.90
19397;DHT22;9834;48.076;11.878;2022-09-02T07:24:57;13.70;99.90
19397;DHT22;9834;48.076;11.878;2022-09-02T07:27:24;13.70;99.90
19397;DHT22;9834;48.076;11.878;2022-09-02T07:29:51;13.90;99.90
19397;DHT22;9834;48.076;11.878;2022-09-02T07:32:20;14.00;99.90
19397;DHT22;9834;48.076;11.878;2022-09-02T07:34:47;14.00;99.90
19397;DHT22;9834;48.076;11.878;2022-09-02T07:37:14;14.10;99.90
19397;DHT22;9834;48.076;11.878;2022-09-02T07:39:41;14.10;99.90
19397;DHT22;9834;48.076;11.878;2022-09-02T07:42:08;14.20;99.90
19397;DHT22;9834;48.076;11.878;2022-09-02T07:44:35;14.20;99.90
19397;DHT22;9834;48.076;11.878;2022-09-02T07:47:02;14.30;99.90
19397;DHT22;9834;48.076;11.878;2022-09-02T07:49:31;14.40;99.90
19397;DHT22;9834;48.076;11.878;2022-09-02T07:51:58;14.40;99.90
19397;DHT22;9834;48.076;11.878;2022-09-02T07:54:26;14.40;99.90
19397;DHT22;9834;48.076;11.878;2022-09-02T07:56:55;14.50;99.90
19397;DHT22;9834;48.076;11.878;2022-09-02T07:59:22;14.60;99.90
19397;DHT22;9834;48.076;11.878;2022-09-02T08:05:13;14.90;99.90
19397;DHT22;9834;48.076;11.878;2022-09-02T08:07:40;15.10;99.90
19397;DHT22;9834;48.076;11.878;2022-09-02T08:10:08;15.20;99.90
19397;DHT22;9834;48.076;11.878;2022-09-02T08:12:37;15.30;99.90
19397;DHT22;9834;48.076;11.878;2022-09-02T08:15:05;15.40;99.90
19397;DHT22;9834;48.076;11.878;2022-09-02T08:17:32;15.50;99.90
19397;DHT22;9834;48.076;11.878;2022-09-02T08:19:59;15.60;99.90
19397;DHT22;9834;48.076;11.878;2022-09-02T08:22:33;15.70;99.90
19397;DHT22;9834;48.076;11.878;2022-09-02T08:25:01;15.70;99.90
19397;DHT22;9834;48.076;11.878;2022-09-02T08:27:28;15.90;99.90
19397;DHT22;9834;48.076;11.878;2022-09-02T08:29:56;15.90;99.90
19397;DHT22;9834;48.076;11.878;2022-09-02T08:32:26;16.10;99.90
19397;DHT22;9834;48.076;11.878;2022-09-02T08:34:53;16.30;99.90
19397;DHT22;9834;48.076;11.878;2022-09-02T08:37:20;16.40;99.90
19397;DHT22;9834;48.076;11.878;2022-09-02T08:39:49;16.40;99.90
19397;DHT22;9834;48.076;11.878;2022-09-02T08:42:20;16.50;99.90
19397;DHT22;9834;48.076;11.878;2022-09-02T08:44:49;16.60;99.90
19397;DHT22;9834;48.076;11.878;2022-09-02T08:47:21;16.70;99.90
19397;DHT22;9834;48.076;11.878;2022-09-02T08:49:51;16.80;99.90
19397;DHT22;9834;48.076;11.878;2022-09-02T08:52:25;16.90;99.90
19397;DHT22;9834;48.076;11.878;2022-09-02T08:54:55;17.00;99.90
19397;DHT22;9834;48.076;11.878;2022-09-02T08:57:23;17.00;99.90
19397;DHT22;9834;48.076;11.878;2022-09-02T08:59:52;17.20;99.90
19397;DHT22;9834;48.076;11.878;2022-09-02T09:02:25;17.30;99.90
19397;DHT22;9834;48.076;11.878;2022-09-02T09:05:02;17.40;99.90
19397;DHT22;9834;48.076;11.878;2022-09-02T09:07:36;17.50;99.90
19397;DHT22;9834;48.076;11.878;2022-09-02T09:10:15;17.70;99.90
19397;DHT22;9834;48.076;11.878;2022-09-02T09:12:57;17.70;99.90
19397;DHT22;9834;48.076;11.878;2022-09-02T09:15:32;17.80;99.90
19397;DHT22;9834;48.076;11.878;2022-09-02T09:18:02;18.00;99.90
19397;DHT22;9834;48.076;11.878;2022-09-02T09:20:32;18.10;99.90
19397;DHT22;9834;48.076;11.878;2022-09-02T09:23:01;18.10;99.90
19397;DHT22;9834;48.076;11.878;2022-09-02T09:25:33;18.20;99.90
19397;DHT22;9834;48.076;11.878;2022-09-02T09:28:01;18.30;99.90
19397;DHT22;9834;48.076;11.878;2022-09-02T09:30:28;18.30;99.10
19397;DHT22;9834;48.076;11.878;2022-09-02T09:32:57;18.40;98.50
19397;DHT22;9834;48.076;11.878;2022-09-02T09:35:25;18.50;98.20
19397;DHT22;9834;48.076;11.878;2022-09-02T09:37:54;18.70;96.20
19397;DHT22;9834;48.076;11.878;2022-09-02T09:40:29;18.80;96.10
19397;DHT22;9834;48.076;11.878;2022-09-02T09:43:12;19.00;95.50
19397;DHT22;9834;48.076;11.878;2022-09-02T09:45:41;19.10;94.10
19397;DHT22;9834;48.076;11.878;2022-09-02T09:48:22;19.30;92.60
19397;DHT22;9834;48.076;11.878;2022-09-02T09:51:13;19.40;92.60
19397;DHT22;9834;48.076;11.878;2022-09-02T09:53:41;19.60;91.40
19397;DHT22;9834;48.076;11.878;2022-09-02T09:56:26;19.70;88.60
19397;DHT22;9834;48.076;11.878;2022-09-02T09:58:55;19.70;84.90
19397;DHT22;9834;48.076;11.878;2022-09-02T10:01:24;19.80;90.40
19397;DHT22;9834;48.076;11.878;2022-09-02T10:03:54;20.00;84.00
19397;DHT22;9834;48.076;11.878;2022-09-02T10:06:23;20.10;81.50
19397;DHT22;9834;48.076;11.878;2022-09-02T10:08:53;20.30;82.40
19397;DHT22;9834;48.076;11.878;2022-09-02T10:11:23;20.60;82.90
19397;DHT22;9834;48.076;11.878;2022-09-02T10:14:00;20.70;79.30
19397;DHT22;9834;48.076;11.878;2022-09-02T10:16:38;21.00;81.10
19397;DHT22;9834;48.076;11.878;2022-09-02T10:19:14;21.30;76.00
19397;DHT22;9834;48.076;11.878;2022-09-02T10:24:55;21.60;74.60
19397;DHT22;9834;48.076;11.878;2022-09-02T10:27:33;21.80;74.60
19397;DHT22;9834;48.076;11.878;2022-09-02T10:30:07;22.30;74.10
19397;DHT22;9834;48.076;11.878;2022-09-02T10:35:29;22.90;74.80
19397;DHT22;9834;48.076;11.878;2022-09-02T10:38:23;23.20;69.00
19397;DHT22;9834;48.076;11.878;2022-09-02T10:40:57;23.30;69.80
19397;DHT22;9834;48.076;11.878;2022-09-02T10:43:32;23.10;69.40
19397;DHT22;9834;48.076;11.878;2022-09-02T10:46:08;23.20;73.90
19397;DHT22;9834;48.076;11.878;2022-09-02T10:48:45;23.60;68.20
19397;DHT22;9834;48.076;11.878;2022-09-02T10:51:24;23.80;65.50
19397;DHT22;9834;48.076;11.878;2022-09-02T10:54:09;23.70;68.20
19397;DHT22;9834;48.076;11.878;2022-09-02T10:56:42;24.10;67.30
19397;DHT22;9834;48.076;11.878;2022-09-02T10:59:15;24.40;63.70
19397;DHT22;9834;48.076;11.878;2022-09-02T11:01:49;24.20;63.40
19397;DHT22;9834;48.076;11.878;2022-09-02T11:04:21;24.60;61.80
19397;DHT22;9834;48.076;11.878;2022-09-02T11:06:50;24.90;61.50
19397;DHT22;9834;48.076;11.878;2022-09-02T11:09:26;25.10;61.30
19397;DHT22;9834;48.076;11.878;2022-09-02T11:11:58;25.70;59.90
19397;DHT22;9834;48.076;11.878;2022-09-02T11:14:29;26.40;59.90
19397;DHT22;9834;48.076;11.878;2022-09-02T11:17:04;26.90;58.30
19397;DHT22;9834;48.076;11.878;2022-09-02T11:19:38;27.00;57.20
19397;DHT22;9834;48.076;11.878;2022-09-02T11:22:16;27.40;54.60
19397;DHT22;9834;48.076;11.878;2022-09-02T11:24:50;27.60;55.50
19397;DHT22;9834;48.076;11.878;2022-09-02T11:27:23;26.80;52.30
19397;DHT22;9834;48.076;11.878;2022-09-02T11:30:01;27.00;53.00
19397;DHT22;9834;48.076;11.878;2022-09-02T11:32:34;27.40;53.80
19397;DHT22;9834;48.076;11.878;2022-09-02T11:35:09;27.50;52.10
19397;DHT22;9834;48.076;11.878;2022-09-02T11:37:42;27.70;54.70
19397;DHT22;9834;48.076;11.878;2022-09-02T11:40:12;28.20;52.20
19397;DHT22;9834;48.076;11.878;2022-09-02T11:42:57;28.60;49.20
19397;DHT22;9834;48.076;11.878;2022-09-02T11:45:53;28.50;49.00
19397;DHT22;9834;48.076;11.878;2022-09-02T11:48:57;28.80;47.40
19397;DHT22;9834;48.076;11.878;2022-09-02T11:51:42;29.40;51.00
19397;DHT22;9834;48.076;11.878;2022-09-02T11:54:14;29.60;48.80
19397;DHT22;9834;48.076;11.878;2022-09-02T11:56:45;29.70;49.10
19397;DHT22;9834;48.076;11.878;2022-09-02T11:59:20;29.80;48.20
19397;DHT22;9834;48.076;11.878;2022-09-02T12:01:49;29.90;48.20
19397;DHT22;9834;48.076;11.878;2022-09-02T12:04:21;30.30;49.90
19397;DHT22;9834;48.076;11.878;2022-09-02T12:07:23;30.80;46.70
19397;DHT22;9834;48.076;11.878;2022-09-02T12:09:51;30.60;46.60
19397;DHT22;9834;48.076;11.878;2022-09-02T12:15:25;31.60;43.70
19397;DHT22;9834;48.076;11.878;2022-09-02T12:21:05;31.50;42.00
19397;DHT22;9834;48.076;11.878;2022-09-02T12:27:05;31.80;42.80
19397;DHT22;9834;48.076;11.878;2022-09-02T12:29:34;31.80;42.00
19397;DHT22;9834;48.076;11.878;2022-09-02T12:32:03;31.90;41.90
19397;DHT22;9834;48.076;11.878;2022-09-02T12:34:58;32.40;42.80
19397;DHT22;9834;48.076;11.878;2022-09-02T12:37:54;32.50;42.80
19397;DHT22;9834;48.076;11.878;2022-09-02T12:40:33;32.60;40.60
19397;DHT22;9834;48.076;11.878;2022-09-02T12:43:06;33.20;41.20
19397;DHT22;9834;48.076;11.878;2022-09-02T12:45:43;32.80;42.10
19397;DHT22;9834;48.076;11.878;2022-09-02T12:48:14;32.80;41.80
19397;DHT22;9834;48.076;11.878;2022-09-02T12:50:54;33.40;39.00
19397;DHT22;9834;48.076;11.878;2022-09-02T12:53:32;33.40;39.00
19397;DHT22;9834;48.076;11.878;2022-09-02T12:56:02;34.00;41.80
19397;DHT22;9834;48.076;11.878;2022-09-02T12:58:37;34.40;39.10
19397;DHT22;9834;48.076;11.878;2022-09-02T13:01:15;34.80;39.20
19397;DHT22;9834;48.076;11.878;2022-09-02T13:04:02;35.80;37.00
19397;DHT22;9834;48.076;11.878;2022-09-02T13:06:52;36.20;35.50
19397;DHT22;9834;48.076;11.878;2022-09-02T13:09:54;36.00;36.70
19397;DHT22;9834;48.076;11.878;2022-09-02T13:12:58;36.00;36.50
19397;DHT22;9834;48.076;11.878;2022-09-02T13:15:50;35.90;35.50
19397;DHT22;9834;48.076;11.878;2022-09-02T13:24:38;35.60;34.00
19397;DHT22;9834;48.076;11.878;2022-09-02T13:30:10;36.30;33.50
19397;DHT22;9834;48.076;11.878;2022-09-02T13:32:39;36.10;33.50
19397;DHT22;9834;48.076;11.878;2022-09-02T13:35:14;35.50;34.20
19397;DHT22;9834;48.076;11.878;2022-09-02T13:37:43;35.10;34.60
19397;DHT22;9834;48.076;11.878;2022-09-02T13:40:17;35.80;35.90
19397;DHT22;9834;48.076;11.878;2022-09-02T13:42:50;36.20;33.10
19397;DHT22;9834;48.076;11.878;2022-09-02T13:45:20;37.40;33.90
19397;DHT22;9834;48.076;11.878;2022-09-02T13:47:50;37.80;31.40
19397;DHT22;9834;48.076;11.878;2022-09-02T13:50:20;37.90;31.20
19397;DHT22;9834;48.076;11.878;2022-09-02T13:52:50;37.90;32.00
19397;DHT22;9834;48.076;11.878;2022-09-02T13:55:17;37.90;31.10
19397;DHT22;9834;48.076;11.878;2022-09-02T13:57:51;37.80;30.40
19397;DHT22;9834;48.076;11.878;2022-09-02T14:00:27;38.50;31.00
19397;DHT22;9834;48.076;11.878;2022-09-02T14:02:57;38.40;30.00
19397;DHT22;9834;48.076;11.878;2022-09-02T14:05:25;38.40;31.00
19397;DHT22;9834;48.076;11.878;2022-09-02T14:07:54;38.90;29.90
19397;DHT22;9834;48.076;11.878;2022-09-02T14:10:26;39.20;29.60
19397;DHT22;9834;48.076;11.878;2022-09-02T14:12:55;38.50;29.60
19397;DHT22;9834;48.076;11.878;2022-09-02T14:15:25;36.70;32.30
19397;DHT22;9834;48.076;11.878;2022-09-02T14:18:09;36.80;31.60
19397;DHT22;9834;48.076;11.878;2022-09-02T14:20:37;36.60;32.90
19397;DHT22;9834;48.076;11.878;2022-09-02T14:23:04;36.40;32.00
19397;DHT22;9834;48.076;11.878;2022-09-02T14:25:36;36.80;30.90
19397;DHT22;9834;48.076;11.878;2022-09-02T14:28:09;36.60;31.30
19397;DHT22;9834;48.076;11.878;2022-09-02T14:30:53;36.90;31.00
19397;DHT22;9834;48.076;11.878;2022-09-02T14:33:27;37.50;31.30
19397;DHT22;9834;48.076;11.878;2022-09-02T14:36:04;36.70;33.20
19397;DHT22;9834;48.076;11.878;2022-09-02T14:38:35;36.70;31.60
19397;DHT22;9834;48.076;11.878;2022-09-02T14:41:04;36.90;31.30
19397;DHT22;9834;48.076;11.878;2022-09-02T14:43:43;37.20;31.20
19397;DHT22;9834;48.076;11.878;2022-09-02T14:46:26;37.90;30.90
19397;DHT22;9834;48.076;11.878;2022-09-02T14:49:00;38.10;29.10
19397;DHT22;9834;48.076;11.878;2022-09-02T14:51:33;37.40;30.80
19397;DHT22;9834;48.076;11.878;2022-09-02T14:54:03;36.80;30.90
19397;DHT22;9834;48.076;11.878;2022-09-02T14:56:48;36.80;31.00
19397;DHT22;9834;48.076;11.878;2022-09-02T14:59:18;36.80;30.30
19397;DHT22;9834;48.076;11.878;2022-09-02T15:01:47;36.60;31.70
19397;DHT22;9834;48.076;11.878;2022-09-02T15:04:16;36.20;32.50
19397;DHT22;9834;48.076;11.878;2022-09-02T15:06:44;36.40;31.60
19397;DHT22;9834;48.076;11.878;2022-09-02T15:09:12;36.80;30.10
19397;DHT22;9834;48.076;11.878;2022-09-02T15:11:41;36.10;32.30
19397;DHT22;9834;48.076;11.878;2022-09-02T15:14:09;36.10;31.60
19397;DHT22;9834;48.076;11.878;2022-09-02T15:16:38;36.10;32.10
19397;DHT22;9834;48.076;11.878;2022-09-02T15:19:05;36.10;32.90
19397;DHT22;9834;48.076;11.878;2022-09-02T15:21:32;36.70;31.00
19397;DHT22;9834;48.076;11.878;2022-09-02T15:23:59;36.10;31.70
19397;DHT22;9834;48.076;11.878;2022-09-02T15:26:26;36.00;31.30
19397;DHT22;9834;48.076;11.878;2022-09-02T15:28:53;36.40;32.70
19397;DHT22;9834;48.076;11.878;2022-09-02T15:31:20;36.60;31.70
19397;DHT22;9834;48.076;11.878;2022-09-02T15:33:51;37.10;31.10
19397;DHT22;9834;48.076;11.878;2022-09-02T15:36:18;36.60;30.50
19397;DHT22;9834;48.076;11.878;2022-09-02T15:38:46;36.50;31.50
19397;DHT22;9834;48.076;11.878;2022-09-02T15:41:15;35.20;32.00
19397;DHT22;9834;48.076;11.878;2022-09-02T15:43:43;35.10;32.50
19397;DHT22;9834;48.076;11.878;2022-09-02T15:46:16;34.90;32.70
19397;DHT22;9834;48.076;11.878;2022-09-02T15:48:44;35.00;34.80
19397;DHT22;9834;48.076;11.878;2022-09-02T15:51:13;34.90;33.90
19397;DHT22;9834;48.076;11.878;2022-09-02T15:53:40;34.60;32.50
19397;DHT22;9834;48.076;11.878;2022-09-02T15:56:15;34.70;33.80
19397;DHT22;9834;48.076;11.878;2022-09-02T15:58:42;34.90;34.00
19397;DHT22;9834;48.076;11.878;2022-09-02T16:01:09;35.20;32.80
19397;DHT22;9834;48.076;11.878;2022-09-02T16:03:36;35.10;31.80
19397;DHT22;9834;48.076;11.878;2022-09-02T16:06:04;35.10;33.50
19397;DHT22;9834;48.076;11.878;2022-09-02T16:08:34;35.40;32.80
19397;DHT22;9834;48.076;11.878;2022-09-02T16:11:05;34.50;32.30
19397;DHT22;9834;48.076;11.878;2022-09-02T16:13:33;34.10;33.50
19397;DHT22;9834;48.076;11.878;2022-09-02T16:16:02;34.40;33.30
19397;DHT22;9834;48.076;11.878;2022-09-02T16:18:29;34.40;33.40
19397;DHT22;9834;48.076;11.878;2022-09-02T16:20:56;33.70;33.50
19397;DHT22;9834;48.076;11.878;2022-09-02T16:23:23;33.20;35.00
19397;DHT22;9834;48.076;11.878;2022-09-02T16:28:44;33.40;34.60
19397;DHT22;9834;48.076;11.878;2022-09-02T16:31:13;33.20;35.50
19397;DHT22;9834;48.076;11.878;2022-09-02T16:33:42;32.10;36.20
19397;DHT22;9834;48.076;11.878;2022-09-02T16:36:10;32.00;36.00